sensor_id;sensor_type;location;lat;lon;timestamp;P1;durP1;ratioP1;P2;durP2;ratioP2
69900;SDS011;57183;50.930;5.406;2023-04-03T00:02:16;12.40;;;7.28;;
69900;SDS011;57183;50.930;5.406;2023-04-03T00:04:42;9.73;;;6.70;;
69900;SDS011;57183;50.930;5.406;2023-04-03T00:07:08;9.60;;;6.53;;
69900;SDS011;57183;50.930;5.406;2023-04-03T00:09:33;10.75;;;6.70;;
69900;SDS011;57183;50.930;5.406;2023-04-03T00:11:59;14.30;;;8.18;;
69900;SDS011;57183;50.930;5.406;2023-04-03T00:14:25;10.43;;;6.57;;
69900;SDS011;57183;50.930;5.406;2023-04-03T00:16:52;8.50;;;6.85;;
69900;SDS011;57183;50.930;5.406;2023-04-03T00:19:18;10.32;;;6.53;;
69900;SDS011;57183;50.930;5.406;2023-04-03T00:21:43;6.85;;;5.68;;
69900;SDS011;57183;50.930;5.406;2023-04-03T00:24:09;12.05;;;6.45;;
69900;SDS011;57183;50.930;5.406;2023-04-03T00:26:35;7.00;;;4.90;;
69900;SDS011;57183;50.930;5.406;2023-04-03T00:29:01;7.18;;;5.35;;
69900;SDS011;57183;50.930;5.406;2023-04-03T00:31:26;8.98;;;5.75;;
69900;SDS011;57183;50.930;5.406;2023-04-03T00:33:52;7.30;;;6.25;;
69900;SDS011;57183;50.930;5.406;2023-04-03T00:36:18;7.43;;;5.45;;
69900;SDS011;57183;50.930;5.406;2023-04-03T00:38:43;9.25;;;5.47;;
69900;SDS011;57183;50.930;5.406;2023-04-03T00:41:09;7.25;;;4.95;;
69900;SDS011;57183;50.930;5.406;2023-04-03T00:43:35;8.38;;;5.70;;
69900;SDS011;57183;50.930;5.406;2023-04-03T00:46:00;6.97;;;4.85;;
69900;SDS011;57183;50.930;5.406;2023-04-03T00:48:45;6.43;;;5.65;;
69900;SDS011;57183;50.930;5.406;2023-04-03T00:51:45;7.03;;;5.53;;
69900;SDS011;57183;50.930;5.406;2023-04-03T00:54:05;6.03;;;5.43;;
69900;SDS011;57183;50.930;5.406;2023-04-03T00:56:32;6.00;;;5.40;;
69900;SDS011;57183;50.930;5.406;2023-04-03T00:59:02;6.82;;;5.32;;
69900;SDS011;57183;50.930;5.406;2023-04-03T01:01:31;7.65;;;5.97;;
69900;SDS011;57183;50.930;5.406;2023-04-03T01:04:00;7.15;;;5.55;;
69900;SDS011;57183;50.930;5.406;2023-04-03T01:06:28;11.40;;;5.75;;
69900;SDS011;57183;50.930;5.406;2023-04-03T01:08:57;10.95;;;5.32;;
69900;SDS011;57183;50.930;5.406;2023-04-03T01:11:24;5.93;;;5.32;;
69900;SDS011;57183;50.930;5.406;2023-04-03T01:13:50;6.43;;;5.60;;
69900;SDS011;57183;50.930;5.406;2023-04-03T01:16:15;5.75;;;4.88;;
69900;SDS011;57183;50.930;5.406;2023-04-03T01:18:41;6.32;;;5.55;;
69900;SDS011;57183;50.930;5.406;2023-04-03T01:21:23;9.48;;;6.03;;
69900;SDS011;57183;50.930;5.406;2023-04-03T01:24:03;8.90;;;5.80;;
69900;SDS011;57183;50.930;5.406;2023-04-03T01:26:39;7.70;;;6.15;;
69900;SDS011;57183;50.930;5.406;2023-04-03T01:29:05;6.72;;;6.00;;
69900;SDS011;57183;50.930;5.406;2023-04-03T01:31:32;9.73;;;6.22;;
69900;SDS011;57183;50.930;5.406;2023-04-03T01:34:13;6.38;;;5.78;;
69900;SDS011;57183;50.930;5.406;2023-04-03T01:36:39;7.28;;;5.97;;
69900;SDS011;57183;50.930;5.406;2023-04-03T01:39:05;6.25;;;5.50;;
69900;SDS011;57183;50.930;5.406;2023-04-03T01:41:31;7.63;;;5.82;;
69900;SDS011;57183;50.930;5.406;2023-04-03T01:43:57;11.20;;;6.20;;
69900;SDS011;57183;50.930;5.406;2023-04-03T01:46:23;7.10;;;5.90;;
69900;SDS011;57183;50.930;5.406;2023-04-03T01:48:48;6.70;;;6.05;;
69900;SDS011;57183;50.930;5.406;2023-04-03T01:51:14;9.10;;;6.13;;
69900;SDS011;57183;50.930;5.406;2023-04-03T01:53:40;7.45;;;5.30;;
69900;SDS011;57183;50.930;5.406;2023-04-03T01:56:06;9.25;;;6.00;;
69900;SDS011;57183;50.930;5.406;2023-04-03T01:58:32;10.25;;;5.88;;
69900;SDS011;57183;50.930;5.406;2023-04-03T02:00:58;9.90;;;5.95;;
69900;SDS011;57183;50.930;5.406;2023-04-03T02:03:23;8.35;;;5.97;;
69900;SDS011;57183;50.930;5.406;2023-04-03T02:05:49;9.65;;;6.22;;
69900;SDS011;57183;50.930;5.406;2023-04-03T02:08:15;8.68;;;6.00;;
69900;SDS011;57183;50.930;5.406;2023-04-03T02:10:43;7.07;;;5.47;;
69900;SDS011;57183;50.930;5.406;2023-04-03T02:13:10;6.53;;;5.90;;
69900;SDS011;57183;50.930;5.406;2023-04-03T02:15:37;9.07;;;6.70;;
69900;SDS011;57183;50.930;5.406;2023-04-03T02:18:04;10.10;;;6.43;;
69900;SDS011;57183;50.930;5.406;2023-04-03T02:20:30;8.98;;;5.97;;
69900;SDS011;57183;50.930;5.406;2023-04-03T02:22:56;8.18;;;6.90;;
69900;SDS011;57183;50.930;5.406;2023-04-03T02:25:21;6.88;;;6.20;;
69900;SDS011;57183;50.930;5.406;2023-04-03T02:27:47;6.78;;;5.93;;
69900;SDS011;57183;50.930;5.406;2023-04-03T02:30:13;10.27;;;5.93;;
69900;SDS011;57183;50.930;5.406;2023-04-03T02:32:40;7.20;;;5.95;;
69900;SDS011;57183;50.930;5.406;2023-04-03T02:35:06;8.02;;;6.35;;
69900;SDS011;57183;50.930;5.406;2023-04-03T02:37:32;6.63;;;5.93;;
69900;SDS011;57183;50.930;5.406;2023-04-03T02:39:57;7.97;;;5.90;;
69900;SDS011;57183;50.930;5.406;2023-04-03T02:42:23;7.88;;;6.53;;
69900;SDS011;57183;50.930;5.406;2023-04-03T02:44:49;9.05;;;6.05;;
69900;SDS011;57183;50.930;5.406;2023-04-03T02:47:15;8.57;;;6.60;;
69900;SDS011;57183;50.930;5.406;2023-04-03T02:49:40;6.45;;;5.78;;
69900;SDS011;57183;50.930;5.406;2023-04-03T02:52:08;9.60;;;6.57;;
69900;SDS011;57183;50.930;5.406;2023-04-03T02:54:34;6.75;;;5.53;;
69900;SDS011;57183;50.930;5.406;2023-04-03T02:57:00;8.55;;;6.35;;
69900;SDS011;57183;50.930;5.406;2023-04-03T02:59:26;8.63;;;6.25;;
69900;SDS011;57183;50.930;5.406;2023-04-03T03:01:51;6.32;;;5.75;;
69900;SDS011;57183;50.930;5.406;2023-04-03T03:04:17;8.95;;;6.50;;
69900;SDS011;57183;50.930;5.406;2023-04-03T03:06:43;12.05;;;6.72;;
69900;SDS011;57183;50.930;5.406;2023-04-03T03:09:09;8.93;;;7.25;;
69900;SDS011;57183;50.930;5.406;2023-04-03T03:11:35;8.82;;;7.75;;
69900;SDS011;57183;50.930;5.406;2023-04-03T03:14:00;12.40;;;7.50;;
69900;SDS011;57183;50.930;5.406;2023-04-03T03:16:26;11.35;;;7.93;;
69900;SDS011;57183;50.930;5.406;2023-04-03T03:18:52;8.15;;;7.07;;
69900;SDS011;57183;50.930;5.406;2023-04-03T03:21:17;9.88;;;6.95;;
69900;SDS011;57183;50.930;5.406;2023-04-03T03:23:45;8.38;;;6.47;;
69900;SDS011;57183;50.930;5.406;2023-04-03T03:26:11;9.48;;;6.88;;
69900;SDS011;57183;50.930;5.406;2023-04-03T03:28:37;9.32;;;6.78;;
69900;SDS011;57183;50.930;5.406;2023-04-03T03:31:04;10.57;;;6.55;;
69900;SDS011;57183;50.930;5.406;2023-04-03T03:33:30;10.80;;;7.20;;
69900;SDS011;57183;50.930;5.406;2023-04-03T03:35:56;8.93;;;7.15;;
69900;SDS011;57183;50.930;5.406;2023-04-03T03:38:22;13.90;;;7.68;;
69900;SDS011;57183;50.930;5.406;2023-04-03T03:40:48;7.90;;;6.80;;
69900;SDS011;57183;50.930;5.406;2023-04-03T03:43:15;9.18;;;7.22;;
69900;SDS011;57183;50.930;5.406;2023-04-03T03:45:42;11.95;;;7.80;;
69900;SDS011;57183;50.930;5.406;2023-04-03T03:48:08;7.78;;;6.45;;
69900;SDS011;57183;50.930;5.406;2023-04-03T03:50:34;9.15;;;6.93;;
69900;SDS011;57183;50.930;5.406;2023-04-03T03:53:00;10.63;;;7.88;;
69900;SDS011;57183;50.930;5.406;2023-04-03T03:55:26;12.77;;;8.35;;
69900;SDS011;57183;50.930;5.406;2023-04-03T03:57:52;9.40;;;7.60;;
69900;SDS011;57183;50.930;5.406;2023-04-03T04:00:26;9.55;;;7.00;;
69900;SDS011;57183;50.930;5.406;2023-04-03T04:02:51;8.85;;;5.90;;
69900;SDS011;57183;50.930;5.406;2023-04-03T04:05:17;8.95;;;6.72;;
69900;SDS011;57183;50.930;5.406;2023-04-03T04:07:43;12.13;;;7.47;;
69900;SDS011;57183;50.930;5.406;2023-04-03T04:10:09;6.72;;;6.10;;
69900;SDS011;57183;50.930;5.406;2023-04-03T04:12:35;10.48;;;7.22;;
69900;SDS011;57183;50.930;5.406;2023-04-03T04:15:01;9.07;;;6.57;;
69900;SDS011;57183;50.930;5.406;2023-04-03T04:17:27;12.40;;;7.38;;
69900;SDS011;57183;50.930;5.406;2023-04-03T04:19:56;10.05;;;6.90;;
69900;SDS011;57183;50.930;5.406;2023-04-03T04:22:21;9.98;;;6.82;;
69900;SDS011;57183;50.930;5.406;2023-04-03T04:24:47;8.55;;;7.07;;
69900;SDS011;57183;50.930;5.406;2023-04-03T04:27:13;11.05;;;7.30;;
69900;SDS011;57183;50.930;5.406;2023-04-03T04:29:38;10.73;;;7.20;;
69900;SDS011;57183;50.930;5.406;2023-04-03T04:32:04;8.48;;;7.15;;
69900;SDS011;57183;50.930;5.406;2023-04-03T04:34:30;9.00;;;7.32;;
69900;SDS011;57183;50.930;5.406;2023-04-03T04:36:56;8.23;;;5.80;;
69900;SDS011;57183;50.930;5.406;2023-04-03T04:39:21;7.80;;;6.25;;
69900;SDS011;57183;50.930;5.406;2023-04-03T04:41:47;9.82;;;6.55;;
69900;SDS011;57183;50.930;5.406;2023-04-03T04:44:15;9.50;;;6.85;;
69900;SDS011;57183;50.930;5.406;2023-04-03T04:46:41;9.85;;;7.38;;
69900;SDS011;57183;50.930;5.406;2023-04-03T04:49:06;10.98;;;6.43;;
69900;SDS011;57183;50.930;5.406;2023-04-03T04:51:32;13.38;;;6.95;;
69900;SDS011;57183;50.930;5.406;2023-04-03T04:53:58;12.18;;;6.25;;
69900;SDS011;57183;50.930;5.406;2023-04-03T04:56:24;9.48;;;6.53;;
69900;SDS011;57183;50.930;5.406;2023-04-03T04:58:50;7.43;;;5.97;;
69900;SDS011;57183;50.930;5.406;2023-04-03T05:01:18;7.38;;;6.68;;
69900;SDS011;57183;50.930;5.406;2023-04-03T05:03:44;11.68;;;6.72;;
69900;SDS011;57183;50.930;5.406;2023-04-03T05:06:10;8.93;;;7.70;;
69900;SDS011;57183;50.930;5.406;2023-04-03T05:08:36;9.15;;;6.57;;
69900;SDS011;57183;50.930;5.406;2023-04-03T05:11:01;7.78;;;6.63;;
69900;SDS011;57183;50.930;5.406;2023-04-03T05:13:27;12.25;;;7.82;;
69900;SDS011;57183;50.930;5.406;2023-04-03T05:15:53;8.70;;;6.95;;
69900;SDS011;57183;50.930;5.406;2023-04-03T05:18:18;10.38;;;7.40;;
69900;SDS011;57183;50.930;5.406;2023-04-03T05:20:44;9.05;;;6.60;;
69900;SDS011;57183;50.930;5.406;2023-04-03T05:23:10;7.07;;;5.60;;
69900;SDS011;57183;50.930;5.406;2023-04-03T05:25:39;7.80;;;7.03;;
69900;SDS011;57183;50.930;5.406;2023-04-03T05:28:06;10.18;;;7.82;;
69900;SDS011;57183;50.930;5.406;2023-04-03T05:30:31;30.00;;;18.63;;
69900;SDS011;57183;50.930;5.406;2023-04-03T05:32:58;17.90;;;11.40;;
69900;SDS011;57183;50.930;5.406;2023-04-03T05:35:24;20.75;;;12.57;;
69900;SDS011;57183;50.930;5.406;2023-04-03T05:37:50;31.40;;;18.98;;
69900;SDS011;57183;50.930;5.406;2023-04-03T05:40:16;28.50;;;16.95;;
69900;SDS011;57183;50.930;5.406;2023-04-03T05:42:43;24.70;;;16.48;;
69900;SDS011;57183;50.930;5.406;2023-04-03T05:45:09;29.15;;;17.45;;
69900;SDS011;57183;50.930;5.406;2023-04-03T05:47:35;31.17;;;18.15;;
69900;SDS011;57183;50.930;5.406;2023-04-03T05:50:01;24.45;;;17.10;;
69900;SDS011;57183;50.930;5.406;2023-04-03T05:52:28;25.00;;;15.32;;
69900;SDS011;57183;50.930;5.406;2023-04-03T05:54:55;29.45;;;19.20;;
69900;SDS011;57183;50.930;5.406;2023-04-03T05:57:21;20.20;;;14.02;;
69900;SDS011;57183;50.930;5.406;2023-04-03T05:59:47;20.27;;;14.82;;
69900;SDS011;57183;50.930;5.406;2023-04-03T06:02:18;18.35;;;13.40;;
69900;SDS011;57183;50.930;5.406;2023-04-03T06:04:45;18.90;;;13.02;;
69900;SDS011;57183;50.930;5.406;2023-04-03T06:07:13;18.80;;;13.40;;
69900;SDS011;57183;50.930;5.406;2023-04-03T06:09:45;22.30;;;13.65;;
69900;SDS011;57183;50.930;5.406;2023-04-03T06:12:12;15.50;;;11.27;;
69900;SDS011;57183;50.930;5.406;2023-04-03T06:14:38;17.20;;;12.73;;
69900;SDS011;57183;50.930;5.406;2023-04-03T06:17:04;18.75;;;11.52;;
69900;SDS011;57183;50.930;5.406;2023-04-03T06:19:30;15.45;;;11.00;;
69900;SDS011;57183;50.930;5.406;2023-04-03T06:21:57;14.57;;;10.52;;
69900;SDS011;57183;50.930;5.406;2023-04-03T06:24:23;12.85;;;9.90;;
69900;SDS011;57183;50.930;5.406;2023-04-03T06:26:50;13.13;;;9.30;;
69900;SDS011;57183;50.930;5.406;2023-04-03T06:29:16;13.45;;;9.10;;
69900;SDS011;57183;50.930;5.406;2023-04-03T06:31:42;11.13;;;8.93;;
69900;SDS011;57183;50.930;5.406;2023-04-03T06:34:08;15.77;;;10.32;;
69900;SDS011;57183;50.930;5.406;2023-04-03T06:36:35;10.40;;;8.85;;
69900;SDS011;57183;50.930;5.406;2023-04-03T06:39:01;14.73;;;9.20;;
69900;SDS011;57183;50.930;5.406;2023-04-03T06:41:28;15.52;;;8.65;;
69900;SDS011;57183;50.930;5.406;2023-04-03T06:43:54;13.75;;;7.53;;
69900;SDS011;57183;50.930;5.406;2023-04-03T06:46:22;10.38;;;7.32;;
69900;SDS011;57183;50.930;5.406;2023-04-03T06:48:48;8.73;;;6.13;;
69900;SDS011;57183;50.930;5.406;2023-04-03T06:51:22;13.70;;;7.30;;
69900;SDS011;57183;50.930;5.406;2023-04-03T06:53:52;9.90;;;6.63;;
69900;SDS011;57183;50.930;5.406;2023-04-03T06:56:20;10.35;;;6.22;;
69900;SDS011;57183;50.930;5.406;2023-04-03T06:58:47;10.57;;;6.22;;
69900;SDS011;57183;50.930;5.406;2023-04-03T07:01:13;12.07;;;6.35;;
69900;SDS011;57183;50.930;5.406;2023-04-03T07:03:41;8.38;;;5.13;;
69900;SDS011;57183;50.930;5.406;2023-04-03T07:06:09;8.95;;;5.93;;
69900;SDS011;57183;50.930;5.406;2023-04-03T07:08:36;7.40;;;5.35;;
69900;SDS011;57183;50.930;5.406;2023-04-03T07:11:02;9.23;;;5.30;;
69900;SDS011;57183;50.930;5.406;2023-04-03T07:13:29;9.63;;;4.78;;
69900;SDS011;57183;50.930;5.406;2023-04-03T07:16:02;8.80;;;5.15;;
69900;SDS011;57183;50.930;5.406;2023-04-03T07:18:30;10.00;;;4.00;;
69900;SDS011;57183;50.930;5.406;2023-04-03T07:20:56;12.88;;;5.00;;
69900;SDS011;57183;50.930;5.406;2023-04-03T07:23:22;6.95;;;4.07;;
69900;SDS011;57183;50.930;5.406;2023-04-03T07:25:49;8.20;;;5.00;;
69900;SDS011;57183;50.930;5.406;2023-04-03T07:28:16;7.18;;;3.70;;
69900;SDS011;57183;50.930;5.406;2023-04-03T07:30:47;8.52;;;4.03;;
69900;SDS011;57183;50.930;5.406;2023-04-03T07:33:16;6.95;;;3.35;;
69900;SDS011;57183;50.930;5.406;2023-04-03T07:35:43;5.60;;;3.85;;
69900;SDS011;57183;50.930;5.406;2023-04-03T07:38:09;6.65;;;3.80;;
69900;SDS011;57183;50.930;5.406;2023-04-03T07:40:36;5.85;;;3.50;;
69900;SDS011;57183;50.930;5.406;2023-04-03T07:43:02;5.43;;;3.50;;
69900;SDS011;57183;50.930;5.406;2023-04-03T07:45:29;4.95;;;2.88;;
69900;SDS011;57183;50.930;5.406;2023-04-03T07:47:55;3.58;;;3.22;;
69900;SDS011;57183;50.930;5.406;2023-04-03T07:50:31;4.40;;;2.80;;
69900;SDS011;57183;50.930;5.406;2023-04-03T07:52:57;3.83;;;2.55;;
69900;SDS011;57183;50.930;5.406;2023-04-03T07:55:23;3.08;;;2.30;;
69900;SDS011;57183;50.930;5.406;2023-04-03T07:57:50;11.07;;;3.42;;
69900;SDS011;57183;50.930;5.406;2023-04-03T08:00:16;4.78;;;3.20;;
69900;SDS011;57183;50.930;5.406;2023-04-03T08:02:43;5.25;;;2.78;;
69900;SDS011;57183;50.930;5.406;2023-04-03T08:05:09;4.45;;;2.65;;
69900;SDS011;57183;50.930;5.406;2023-04-03T08:07:36;4.53;;;2.70;;
69900;SDS011;57183;50.930;5.406;2023-04-03T08:10:03;6.32;;;2.30;;
69900;SDS011;57183;50.930;5.406;2023-04-03T08:12:28;7.45;;;3.08;;
69900;SDS011;57183;50.930;5.406;2023-04-03T08:14:54;4.80;;;2.75;;
69900;SDS011;57183;50.930;5.406;2023-04-03T08:17:20;3.97;;;2.30;;
69900;SDS011;57183;50.930;5.406;2023-04-03T08:19:46;7.53;;;2.58;;
69900;SDS011;57183;50.930;5.406;2023-04-03T08:22:12;2.80;;;2.15;;
69900;SDS011;57183;50.930;5.406;2023-04-03T08:24:38;3.78;;;2.40;;
69900;SDS011;57183;50.930;5.406;2023-04-03T08:27:03;3.90;;;1.90;;
69900;SDS011;57183;50.930;5.406;2023-04-03T08:29:29;3.80;;;1.85;;
69900;SDS011;57183;50.930;5.406;2023-04-03T08:31:55;6.93;;;2.83;;
69900;SDS011;57183;50.930;5.406;2023-04-03T08:34:21;2.47;;;2.25;;
69900;SDS011;57183;50.930;5.406;2023-04-03T08:36:47;4.03;;;2.20;;
69900;SDS011;57183;50.930;5.406;2023-04-03T08:39:13;4.70;;;2.20;;
69900;SDS011;57183;50.930;5.406;2023-04-03T08:41:39;4.90;;;2.03;;
69900;SDS011;57183;50.930;5.406;2023-04-03T08:44:15;3.58;;;1.90;;
69900;SDS011;57183;50.930;5.406;2023-04-03T08:49:39;4.20;;;2.15;;
69900;SDS011;57183;50.930;5.406;2023-04-03T08:52:12;4.63;;;1.80;;
69900;SDS011;57183;50.930;5.406;2023-04-03T08:57:35;2.70;;;2.00;;
69900;SDS011;57183;50.930;5.406;2023-04-03T09:00:23;2.70;;;1.92;;
69900;SDS011;57183;50.930;5.406;2023-04-03T09:02:54;3.33;;;1.80;;
69900;SDS011;57183;50.930;5.406;2023-04-03T09:08:12;2.92;;;1.10;;
69900;SDS011;57183;50.930;5.406;2023-04-03T09:11:06;4.07;;;1.60;;
69900;SDS011;57183;50.930;5.406;2023-04-03T09:19:18;2.22;;;1.30;;
69900;SDS011;57183;50.930;5.406;2023-04-03T09:21:47;3.70;;;1.50;;
69900;SDS011;57183;50.930;5.406;2023-04-03T09:24:14;3.03;;;1.52;;
69900;SDS011;57183;50.930;5.406;2023-04-03T09:26:45;4.43;;;1.77;;
69900;SDS011;57183;50.930;5.406;2023-04-03T09:29:35;3.88;;;1.42;;
69900;SDS011;57183;50.930;5.406;2023-04-03T09:32:24;2.83;;;1.58;;
69900;SDS011;57183;50.930;5.406;2023-04-03T09:34:53;2.85;;;1.02;;
69900;SDS011;57183;50.930;5.406;2023-04-03T09:37:38;3.25;;;1.45;;
69900;SDS011;57183;50.930;5.406;2023-04-03T09:40:30;3.42;;;1.42;;
69900;SDS011;57183;50.930;5.406;2023-04-03T09:42:56;5.75;;;1.48;;
69900;SDS011;57183;50.930;5.406;2023-04-03T09:45:33;3.65;;;1.55;;
69900;SDS011;57183;50.930;5.406;2023-04-03T09:53:34;3.28;;;1.05;;
69900;SDS011;57183;50.930;5.406;2023-04-03T09:56:01;10.23;;;1.40;;
69900;SDS011;57183;50.930;5.406;2023-04-03T09:58:39;1.77;;;1.13;;
69900;SDS011;57183;50.930;5.406;2023-04-03T10:01:09;2.38;;;1.27;;
69900;SDS011;57183;50.930;5.406;2023-04-03T10:04:12;3.05;;;1.52;;
69900;SDS011;57183;50.930;5.406;2023-04-03T10:06:40;3.92;;;1.48;;
69900;SDS011;57183;50.930;5.406;2023-04-03T10:09:21;2.67;;;0.93;;
69900;SDS011;57183;50.930;5.406;2023-04-03T10:14:54;2.50;;;0.73;;
69900;SDS011;57183;50.930;5.406;2023-04-03T10:23:02;2.17;;;1.80;;
69900;SDS011;57183;50.930;5.406;2023-04-03T10:37:01;3.50;;;0.85;;
69900;SDS011;57183;50.930;5.406;2023-04-03T10:42:35;0.90;;;0.40;;
69900;SDS011;57183;50.930;5.406;2023-04-03T10:48:18;1.73;;;0.50;;
69900;SDS011;57183;50.930;5.406;2023-04-03T10:56:30;1.23;;;0.68;;
69900;SDS011;57183;50.930;5.406;2023-04-03T10:59:07;3.78;;;0.70;;
69900;SDS011;57183;50.930;5.406;2023-04-03T11:01:45;2.30;;;0.55;;
69900;SDS011;57183;50.930;5.406;2023-04-03T11:04:15;1.02;;;0.40;;
69900;SDS011;57183;50.930;5.406;2023-04-03T11:06:45;1.50;;;0.47;;
69900;SDS011;57183;50.930;5.406;2023-04-03T11:09:33;1.45;;;0.63;;
69900;SDS011;57183;50.930;5.406;2023-04-03T11:12:06;1.17;;;0.70;;
69900;SDS011;57183;50.930;5.406;2023-04-03T11:14:35;0.93;;;0.35;;
69900;SDS011;57183;50.930;5.406;2023-04-03T11:22:39;3.45;;;1.17;;
69900;SDS011;57183;50.930;5.406;2023-04-03T11:27:58;3.17;;;0.52;;
69900;SDS011;57183;50.930;5.406;2023-04-03T11:30:27;2.60;;;0.68;;
69900;SDS011;57183;50.930;5.406;2023-04-03T11:36:27;1.55;;;0.57;;
69900;SDS011;57183;50.930;5.406;2023-04-03T11:39:00;2.17;;;0.70;;
69900;SDS011;57183;50.930;5.406;2023-04-03T11:44:01;2.90;;;0.70;;
69900;SDS011;57183;50.930;5.406;2023-04-03T11:46:52;1.25;;;0.60;;
69900;SDS011;57183;50.930;5.406;2023-04-03T11:53:11;1.27;;;0.80;;
69900;SDS011;57183;50.930;5.406;2023-04-03T12:13:40;3.17;;;1.13;;
69900;SDS011;57183;50.930;5.406;2023-04-03T12:16:22;2.15;;;0.77;;
69900;SDS011;57183;50.930;5.406;2023-04-03T12:24:27;0.95;;;0.60;;
69900;SDS011;57183;50.930;5.406;2023-04-03T12:29:27;1.75;;;0.77;;
69900;SDS011;57183;50.930;5.406;2023-04-03T12:34:56;2.90;;;0.73;;
69900;SDS011;57183;50.930;5.406;2023-04-03T12:40:39;2.30;;;0.90;;
69900;SDS011;57183;50.930;5.406;2023-04-03T12:46:11;2.08;;;0.95;;
69900;SDS011;57183;50.930;5.406;2023-04-03T12:51:13;5.22;;;0.90;;
69900;SDS011;57183;50.930;5.406;2023-04-03T12:53:44;2.20;;;1.00;;
69900;SDS011;57183;50.930;5.406;2023-04-03T12:56:19;2.05;;;1.02;;
69900;SDS011;57183;50.930;5.406;2023-04-03T12:58:48;1.55;;;0.82;;
69900;SDS011;57183;50.930;5.406;2023-04-03T13:01:19;5.20;;;1.60;;
69900;SDS011;57183;50.930;5.406;2023-04-03T13:03:49;2.72;;;1.27;;
69900;SDS011;57183;50.930;5.406;2023-04-03T13:06:19;1.52;;;0.90;;
69900;SDS011;57183;50.930;5.406;2023-04-03T13:08:48;1.20;;;0.77;;
69900;SDS011;57183;50.930;5.406;2023-04-03T13:11:22;3.60;;;1.45;;
69900;SDS011;57183;50.930;5.406;2023-04-03T13:14:03;2.25;;;0.90;;
69900;SDS011;57183;50.930;5.406;2023-04-03T13:16:33;3.33;;;0.82;;
69900;SDS011;57183;50.930;5.406;2023-04-03T13:18:59;2.70;;;0.90;;
69900;SDS011;57183;50.930;5.406;2023-04-03T13:21:26;1.98;;;0.93;;
69900;SDS011;57183;50.930;5.406;2023-04-03T13:23:57;2.40;;;1.30;;
69900;SDS011;57183;50.930;5.406;2023-04-03T13:26:27;2.53;;;1.00;;
69900;SDS011;57183;50.930;5.406;2023-04-03T13:28:56;5.00;;;1.00;;
69900;SDS011;57183;50.930;5.406;2023-04-03T13:31:26;2.60;;;1.17;;
69900;SDS011;57183;50.930;5.406;2023-04-03T13:34:07;5.72;;;0.98;;
69900;SDS011;57183;50.930;5.406;2023-04-03T13:39:35;1.77;;;1.00;;
69900;SDS011;57183;50.930;5.406;2023-04-03T13:42:16;2.42;;;1.20;;
69900;SDS011;57183;50.930;5.406;2023-04-03T13:45:09;4.00;;;0.90;;
69900;SDS011;57183;50.930;5.406;2023-04-03T13:47:40;1.95;;;0.95;;
69900;SDS011;57183;50.930;5.406;2023-04-03T13:52:49;2.03;;;1.00;;
69900;SDS011;57183;50.930;5.406;2023-04-03T13:58:59;1.33;;;0.77;;
69900;SDS011;57183;50.930;5.406;2023-04-03T14:01:48;3.75;;;0.95;;
69900;SDS011;57183;50.930;5.406;2023-04-03T14:06:49;3.22;;;0.80;;
69900;SDS011;57183;50.930;5.406;2023-04-03T14:09:15;2.58;;;1.10;;
69900;SDS011;57183;50.930;5.406;2023-04-03T14:11:42;2.10;;;0.88;;
69900;SDS011;57183;50.930;5.406;2023-04-03T14:14:20;2.17;;;1.30;;
69900;SDS011;57183;50.930;5.406;2023-04-03T14:16:58;4.60;;;1.00;;
69900;SDS011;57183;50.930;5.406;2023-04-03T14:19:26;1.88;;;1.00;;
69900;SDS011;57183;50.930;5.406;2023-04-03T14:21:55;3.08;;;1.75;;
69900;SDS011;57183;50.930;5.406;2023-04-03T14:24:22;1.33;;;0.70;;
69900;SDS011;57183;50.930;5.406;2023-04-03T14:26:49;5.88;;;1.85;;
69900;SDS011;57183;50.930;5.406;2023-04-03T14:29:16;1.40;;;1.00;;
69900;SDS011;57183;50.930;5.406;2023-04-03T14:31:43;2.33;;;0.90;;
69900;SDS011;57183;50.930;5.406;2023-04-03T14:34:11;1.90;;;1.02;;
69900;SDS011;57183;50.930;5.406;2023-04-03T14:36:38;1.75;;;0.85;;
69900;SDS011;57183;50.930;5.406;2023-04-03T14:39:06;2.60;;;1.00;;
69900;SDS011;57183;50.930;5.406;2023-04-03T14:41:34;9.20;;;1.80;;
69900;SDS011;57183;50.930;5.406;2023-04-03T14:44:00;1.77;;;0.82;;
69900;SDS011;57183;50.930;5.406;2023-04-03T14:46:30;4.88;;;0.82;;
69900;SDS011;57183;50.930;5.406;2023-04-03T14:48:58;2.35;;;0.88;;
69900;SDS011;57183;50.930;5.406;2023-04-03T14:51:24;2.67;;;0.98;;
69900;SDS011;57183;50.930;5.406;2023-04-03T14:53:51;6.18;;;1.02;;
69900;SDS011;57183;50.930;5.406;2023-04-03T14:58:47;1.30;;;0.85;;
69900;SDS011;57183;50.930;5.406;2023-04-03T15:01:15;2.13;;;1.00;;
69900;SDS011;57183;50.930;5.406;2023-04-03T15:03:42;5.35;;;1.30;;
69900;SDS011;57183;50.930;5.406;2023-04-03T15:06:11;2.58;;;1.10;;
69900;SDS011;57183;50.930;5.406;2023-04-03T15:08:37;1.77;;;0.93;;
69900;SDS011;57183;50.930;5.406;2023-04-03T15:11:06;5.50;;;0.90;;
69900;SDS011;57183;50.930;5.406;2023-04-03T15:13:32;1.45;;;0.93;;
69900;SDS011;57183;50.930;5.406;2023-04-03T15:15:58;3.28;;;1.05;;
69900;SDS011;57183;50.930;5.406;2023-04-03T15:18:25;1.00;;;0.80;;
69900;SDS011;57183;50.930;5.406;2023-04-03T15:20:52;2.78;;;0.98;;
69900;SDS011;57183;50.930;5.406;2023-04-03T15:23:19;1.40;;;1.00;;
69900;SDS011;57183;50.930;5.406;2023-04-03T15:25:45;2.00;;;0.60;;
69900;SDS011;57183;50.930;5.406;2023-04-03T15:28:35;5.13;;;1.30;;
69900;SDS011;57183;50.930;5.406;2023-04-03T15:31:01;2.67;;;1.13;;
69900;SDS011;57183;50.930;5.406;2023-04-03T15:33:27;2.60;;;1.90;;
69900;SDS011;57183;50.930;5.406;2023-04-03T15:35:53;3.92;;;2.97;;
69900;SDS011;57183;50.930;5.406;2023-04-03T15:38:19;3.05;;;1.30;;
69900;SDS011;57183;50.930;5.406;2023-04-03T15:40:45;3.10;;;2.03;;
69900;SDS011;57183;50.930;5.406;2023-04-03T15:43:12;3.72;;;1.92;;
69900;SDS011;57183;50.930;5.406;2023-04-03T15:45:38;2.88;;;1.20;;
69900;SDS011;57183;50.930;5.406;2023-04-03T15:48:05;2.92;;;1.00;;
69900;SDS011;57183;50.930;5.406;2023-04-03T15:50:32;3.75;;;0.93;;
69900;SDS011;57183;50.930;5.406;2023-04-03T15:52:58;3.78;;;1.23;;
69900;SDS011;57183;50.930;5.406;2023-04-03T15:55:26;1.27;;;0.80;;
69900;SDS011;57183;50.930;5.406;2023-04-03T15:57:54;2.28;;;1.00;;
69900;SDS011;57183;50.930;5.406;2023-04-03T16:02:58;1.88;;;1.05;;
69900;SDS011;57183;50.930;5.406;2023-04-03T16:05:26;6.47;;;2.65;;
69900;SDS011;57183;50.930;5.406;2023-04-03T16:07:52;4.72;;;2.10;;
69900;SDS011;57183;50.930;5.406;2023-04-03T16:10:20;4.85;;;2.22;;
69900;SDS011;57183;50.930;5.406;2023-04-03T16:12:46;7.38;;;2.58;;
69900;SDS011;57183;50.930;5.406;2023-04-03T16:15:12;9.20;;;3.85;;
69900;SDS011;57183;50.930;5.406;2023-04-03T16:17:37;2.50;;;1.27;;
69900;SDS011;57183;50.930;5.406;2023-04-03T16:20:05;5.05;;;2.15;;
69900;SDS011;57183;50.930;5.406;2023-04-03T16:22:32;8.35;;;2.95;;
69900;SDS011;57183;50.930;5.406;2023-04-03T16:24:59;4.47;;;2.35;;
69900;SDS011;57183;50.930;5.406;2023-04-03T16:27:25;1.83;;;1.10;;
69900;SDS011;57183;50.930;5.406;2023-04-03T16:29:53;1.60;;;0.90;;
69900;SDS011;57183;50.930;5.406;2023-04-03T16:32:20;3.97;;;1.23;;
69900;SDS011;57183;50.930;5.406;2023-04-03T16:34:46;1.88;;;0.90;;
69900;SDS011;57183;50.930;5.406;2023-04-03T16:37:12;2.28;;;1.17;;
69900;SDS011;57183;50.930;5.406;2023-04-03T16:39:38;3.83;;;1.98;;
69900;SDS011;57183;50.930;5.406;2023-04-03T16:42:04;7.60;;;3.00;;
69900;SDS011;57183;50.930;5.406;2023-04-03T16:44:30;7.32;;;2.13;;
69900;SDS011;57183;50.930;5.406;2023-04-03T16:46:55;4.18;;;1.65;;
69900;SDS011;57183;50.930;5.406;2023-04-03T16:49:21;6.05;;;2.25;;
69900;SDS011;57183;50.930;5.406;2023-04-03T16:51:48;2.95;;;1.50;;
69900;SDS011;57183;50.930;5.406;2023-04-03T16:54:14;2.33;;;1.40;;
69900;SDS011;57183;50.930;5.406;2023-04-03T16:56:40;2.70;;;1.20;;